Time;durP1;ratioP1;P1;durP2;ratioP2;P2;SDS_P1;SDS_P2;PMS_P1;PMS_P2;Temp;Humidity;BMP_temperature;BMP_pressure;BME280_temperature;BME280_humidity;BME280_pressure;Samples;Min_cycle;Max_cycle;Signal;HPM_P1;HPM_P2
2023/11/30 07:57:12;;;;;;;32.10;18.20;;;;;;;-0.71;73.15;98273.48;105230;1282;649026;-81
2023/11/30 07:59:49;;;;;;;31.80;15.80;;;;;;;-0.69;73.06;98268.36;105401;1262;110645;-80
2023/11/30 08:02:17;;;;;;;32.00;16.00;;;;;;;-0.73;73.11;98267.61;106156;1258;94654;-77
2023/11/30 08:04:45;;;;;;;32.20;15.00;;;;;;;-0.74;73.34;98268.36;106379;1259;107918;-80
2023/11/30 08:07:14;;;;;;;31.40;15.30;;;;;;;-0.76;73.10;98266.54;105564;1258;95239;-78
2023/11/30 08:09:42;;;;;;;37.90;19.10;;;;;;;-0.79;72.75;98267.67;105730;1258;107219;-80
2023/11/30 08:12:10;;;;;;;33.90;17.10;;;;;;;-0.83;72.98;98271.70;105714;1259;94852;-78
2023/11/30 08:14:38;;;;;;;32.00;16.00;;;;;;;-0.85;73.07;98264.98;105863;1254;94434;-75
2023/11/30 08:17:06;;;;;;;32.50;15.00;;;;;;;-0.90;72.56;98265.69;105249;1258;107087;-78
2023/11/30 08:19:35;;;;;;;33.10;15.90;;;;;;;-0.97;72.57;98261.77;105868;1259;94388;-77
2023/11/30 08:22:04;;;;;;;32.30;17.00;;;;;;;-1.01;72.70;98261.03;105739;1258;107506;-83
2023/11/30 08:25:17;;;;;;;31.50;14.90;;;;;;;-1.06;71.85;98259.16;105875;1256;95254;-85
2023/11/30 08:33:05;;;;;;;33.40;15.60;;;;;;;-1.19;72.12;98263.29;105419;1254;109023;-79
2023/11/30 08:35:33;;;;;;;30.90;15.90;;;;;;;-1.20;72.78;98259.48;105598;1259;95180;-80
2023/11/30 08:38:03;;;;;;;31.80;16.00;;;;;;;-1.20;72.36;98257.73;105601;1269;107532;-76
2023/11/30 08:40:31;;;;;;;30.60;14.30;;;;;;;-1.21;71.79;98251.34;105504;1259;95349;-78
2023/11/30 08:43:05;;;;;;;30.70;14.80;;;;;;;-1.20;72.06;98254.10;105475;1257;95450;-76
2023/11/30 08:45:33;;;;;;;29.20;14.80;;;;;;;-1.17;71.59;98249.81;105419;1254;109060;-79
2023/11/30 08:48:05;;;;;;;30.70;14.10;;;;;;;-1.16;72.34;98246.30;105743;1258;95791;-77
2023/11/30 08:50:34;;;;;;;31.00;15.70;;;;;;;-1.09;72.50;98247.59;105947;1254;105835;-81
2023/11/30 08:53:12;;;;;;;31.70;15.10;;;;;;;-1.03;71.81;98248.43;105423;1258;95268;-79
2023/11/30 08:55:46;;;;;;;32.30;16.00;;;;;;;-0.97;71.91;98242.61;106438;1254;95193;-77
2023/11/30 08:58:34;;;;;;;30.60;14.90;;;;;;;-0.90;72.33;98242.52;105185;1257;108209;-81
2023/11/30 09:01:07;;;;;;;33.50;15.00;;;;;;;-0.81;71.84;98239.21;105785;1259;97235;-81
2023/11/30 09:03:41;;;;;;;30.10;15.10;;;;;;;-0.72;71.99;98240.42;106410;1259;110468;-82
2023/11/30 09:06:20;;;;;;;31.00;14.30;;;;;;;-0.61;72.26;98242.60;105804;1259;95313;-86
2023/11/30 09:09:04;;;;;;;;;;;;;;;;;;;;;
2023/11/30 09:12:07;;;;;;;33.80;16.70;;;;;;;-0.38;71.97;98238.54;106713;1259;108946;-83
2023/11/30 09:14:52;;;;;;;31.50;15.60;;;;;;;-0.35;71.75;98231.23;106487;1254;96007;-83
2023/11/30 09:17:20;;;;;;;29.50;14.90;;;;;;;-0.30;71.86;98226.35;106011;1254;106183;-76
2023/11/30 09:19:47;;;;;;;29.00;12.90;;;;;;;-0.27;71.38;98221.73;105428;1259;95252;-80
2023/11/30 09:22:15;;;;;;;31.80;14.10;;;;;;;-0.26;71.22;98220.11;106294;1256;95311;-80
2023/11/30 09:24:55;;;;;;;29.30;14.50;;;;;;;-0.24;71.62;98216.52;106130;1257;108421;-85
2023/11/30 09:27:28;;;;;;;30.40;14.90;;;;;;;-0.18;71.74;98211.91;107361;1257;96275;-82
2023/11/30 09:30:08;;;;;;;29.80;14.40;;;;;;;-0.10;71.11;98208.10;106474;1261;107676;-83
2023/11/30 09:33:20;;;;;;;33.20;15.20;;;;;;;-0.03;71.19;98203.10;105256;1262;95247;-77
2023/11/30 09:35:50;;;;;;;30.10;14.80;;;;;;;0.04;71.70;98204.36;106043;1258;95243;-78
2023/11/30 09:39:14;;;;;;;28.60;13.30;;;;;;;0.10;71.58;98201.64;105904;1259;109005;-85
2023/11/30 09:41:44;;;;;;;29.90;13.60;;;;;;;0.17;71.39;98198.94;105901;1259;95821;-81
2023/11/30 09:44:12;;;;;;;30.20;13.90;;;;;;;0.19;71.21;98197.08;105837;1257;107400;-80
2023/11/30 09:46:44;;;;;;;30.90;14.30;;;;;;;0.20;71.28;98196.52;105249;1254;96209;-84
2023/11/30 09:49:15;;;;;;;29.60;13.50;;;;;;;0.22;71.59;98193.77;105487;1260;95281;-81
2023/11/30 09:51:50;;;;;;;30.30;15.40;;;;;;;0.22;70.84;98187.89;106066;1258;109037;-75
2023/11/30 09:54:19;;;;;;;30.30;15.40;;;;;;;0.22;71.56;98177.77;105633;1258;95554;-77
2023/11/30 09:56:47;;;;;;;32.80;16.30;;;;;;;0.23;70.78;98171.61;106089;1254;107809;-77
2023/11/30 09:59:15;;;;;;;31.80;15.20;;;;;;;0.23;71.45;98174.06;105374;1258;95274;-78
2023/11/30 10:01:43;;;;;;;32.20;14.60;;;;;;;0.20;70.70;98166.89;105710;1258;95309;-77
2023/11/30 10:04:15;;;;;;;31.40;14.60;;;;;;;0.16;71.24;98167.08;105634;1259;107693;-78
2023/11/30 10:06:46;;;;;;;33.10;15.70;;;;;;;0.11;70.88;98167.77;105352;1254;95258;-77
2023/11/30 10:09:15;;;;;;;32.10;15.60;;;;;;;0.05;70.69;98169.61;105370;1257;107600;-72
2023/11/30 10:11:43;;;;;;;33.20;16.50;;;;;;;-0.01;71.24;98167.60;105771;1258;95299;-74
2023/11/30 10:14:11;;;;;;;31.90;15.30;;;;;;;-0.02;70.75;98165.58;105115;1276;95263;-71
2023/11/30 10:16:40;;;;;;;40.00;18.10;;;;;;;-0.04;70.98;98167.92;106136;1254;106748;-73
2023/11/30 10:19:08;;;;;;;35.60;18.20;;;;;;;-0.05;70.96;98167.27;105713;1259;95662;-72
2023/11/30 10:21:37;;;;;;;35.20;17.40;;;;;;;-0.06;71.19;98172.02;105247;1254;107770;-73
2023/11/30 10:24:07;;;;;;;33.50;16.50;;;;;;;-0.04;71.24;98174.91;105311;1259;95259;-72
2023/11/30 10:26:37;;;;;;;30.00;14.50;;;;;;;-0.01;71.17;98175.98;105461;1259;95376;-72
2023/11/30 10:29:06;;;;;;;35.30;17.60;;;;;;;0.04;71.17;98174.73;105358;1260;106651;-72
2023/11/30 10:31:37;;;;;;;29.50;14.10;;;;;;;0.07;70.76;98173.54;106012;1257;95175;-72
2023/11/30 10:34:11;;;;;;;31.20;15.70;;;;;;;0.07;70.29;98174.08;105673;1260;107589;-74
2023/11/30 10:36:42;;;;;;;;;;;;;;;0.03;70.18;98171.09;106131;1254;96207;-72
2023/11/30 10:39:18;;;;;;;31.00;15.10;;;;;;;-0.01;70.82;98170.94;105884;1256;95189;-72
2023/11/30 10:41:51;;;;;;;30.60;14.60;;;;;;;-0.02;70.78;98166.43;105172;1258;108323;-77
2023/11/30 10:44:33;;;;;;;31.10;15.40;;;;;;;0.03;70.96;98166.38;105359;1259;95317;-73
2023/11/30 10:47:01;;;;;;;31.60;15.10;;;;;;;0.09;71.03;98172.59;105353;1260;108316;-70
2023/11/30 10:49:29;;;;;;;32.90;16.50;;;;;;;0.13;71.10;98172.41;105541;1254;95253;-73
2023/11/30 10:52:01;;;;;;;30.90;15.00;;;;;;;0.18;70.55;98165.40;105569;1259;95236;-72
2023/11/30 10:54:49;;;;;;;33.10;17.30;;;;;;;0.24;70.94;98160.60;105303;1259;108339;-71
2023/11/30 10:57:19;;;;;;;31.40;15.20;;;;;;;0.28;71.07;98155.15;105657;1260;96478;-73
2023/11/30 10:59:49;;;;;;;34.10;16.90;;;;;;;0.36;71.44;98156.23;105743;1258;107020;-79
2023/11/30 11:03:35;;;;;;;32.90;16.60;;;;;;;0.43;71.01;98148.02;102190;1291;636117;-73
2023/11/30 11:06:05;;;;;;;30.10;15.50;;;;;;;0.46;71.13;98149.31;104762;1274;94362;-75
2023/11/30 11:08:33;;;;;;;30.40;14.70;;;;;;;0.48;70.90;98144.48;104680;1269;94357;-73
2023/11/30 11:11:09;;;;;;;32.40;15.70;;;;;;;0.50;70.58;98137.97;104487;1279;106852;-75
2023/11/30 11:13:46;;;;;;;30.50;15.10;;;;;;;0.52;71.20;98139.60;104777;1269;95593;-74
2023/11/30 11:16:14;;;;;;;34.90;17.60;;;;;;;0.56;70.95;98143.25;104913;1264;146055;-75
2023/11/30 11:18:45;;;;;;;32.60;15.60;;;;;;;0.57;70.92;98144.25;105350;1268;94301;-76
2023/11/30 11:21:26;;;;;;;31.40;15.60;;;;;;;0.61;71.49;98146.50;105159;1268;94417;-74
2023/11/30 11:24:03;;;;;;;31.10;16.00;;;;;;;0.67;71.10;98138.02;105153;1265;106629;-76
2023/11/30 11:26:48;;;;;;;28.90;14.50;;;;;;;0.68;70.59;98135.87;105080;1269;95352;-75
2023/11/30 11:29:16;;;;;;;31.20;14.60;;;;;;;0.69;70.67;98134.81;105582;1262;106799;-75
2023/11/30 11:31:59;;;;;;;31.30;16.70;;;;;;;0.70;70.92;98131.08;105477;1262;95425;-76
2023/11/30 11:34:26;;;;;;;30.70;15.10;;;;;;;0.74;71.15;98132.84;106230;1255;95288;-76
2023/11/30 11:36:57;;;;;;;31.90;16.00;;;;;;;0.76;70.87;98120.88;105871;1256;108595;-77
2023/11/30 11:39:25;;;;;;;30.50;15.40;;;;;;;0.75;70.68;98120.02;106105;1256;96286;-76
2023/11/30 11:41:57;;;;;;;30.70;15.40;;;;;;;0.77;70.99;98121.88;106606;1254;107326;-78
2023/11/30 11:44:25;;;;;;;30.80;15.80;;;;;;;0.79;71.21;98121.45;105601;1256;96275;-74
2023/11/30 11:46:53;;;;;;;27.90;13.40;;;;;;;0.81;70.99;98118.18;105496;1256;96182;-72
2023/11/30 11:49:21;;;;;;;29.60;14.80;;;;;;;0.80;70.40;98111.59;105567;1256;106989;-74
2023/11/30 11:51:49;;;;;;;30.10;14.90;;;;;;;0.80;70.71;98105.50;106462;1256;95341;-73
2023/11/30 11:54:22;;;;;;;30.50;15.30;;;;;;;0.80;70.74;98101.85;105900;1260;107751;-79
2023/11/30 11:56:51;;;;;;;30.10;14.30;;;;;;;0.82;70.74;98100.52;105279;1259;95340;-79
2023/11/30 11:59:27;;;;;;;34.40;15.90;;;;;;;0.82;70.73;98095.95;105404;1256;95243;-76
2023/11/30 12:01:57;;;;;;;31.00;14.20;;;;;;;0.83;70.53;98090.31;107265;1255;108131;-75
2023/11/30 12:04:30;;;;;;;33.30;17.10;;;;;;;0.83;70.24;98085.95;105477;1254;95518;-75
2023/11/30 12:07:11;;;;;;;32.30;14.80;;;;;;;0.83;70.07;98085.28;105355;1264;107559;-76
2023/11/30 12:09:39;;;;;;;34.60;16.90;;;;;;;0.82;70.23;98077.29;105336;1260;95336;-75
2023/11/30 12:12:08;;;;;;;29.80;14.90;;;;;;;0.83;70.49;98070.27;105494;1261;96192;-78
2023/11/30 12:14:36;;;;;;;28.60;13.60;;;;;;;0.83;69.86;98072.34;105464;1267;108489;-78
2023/11/30 12:17:04;;;;;;;31.50;16.10;;;;;;;0.82;69.89;98072.05;106103;1257;96168;-79
2023/11/30 12:19:32;;;;;;;30.00;15.10;;;;;;;0.83;70.33;98072.37;105374;1259;107649;-80
2023/11/30 12:22:02;;;;;;;37.60;18.80;;;;;;;0.83;70.45;98070.60;105192;1258;95253;-79
2023/11/30 12:24:37;;;;;;;34.70;16.50;;;;;;;0.85;70.67;98067.54;105803;1254;95193;-78
2023/11/30 12:27:06;;;;;;;39.10;18.10;;;;;;;0.89;70.50;98068.55;105389;1254;108510;-79
2023/11/30 12:29:35;;;;;;;36.50;17.40;;;;;;;0.91;70.57;98066.23;105675;1257;95806;-75
2023/11/30 12:32:03;;;;;;;34.30;16.00;;;;;;;0.95;70.82;98070.38;105829;1256;106628;-76
2023/11/30 12:34:31;;;;;;;31.10;15.20;;;;;;;1.00;71.08;98068.36;105342;1265;95297;-77
2023/11/30 12:36:59;;;;;;;31.60;14.50;;;;;;;1.04;70.40;98065.20;105246;1267;95151;-71
2023/11/30 12:39:26;;;;;;;28.10;13.90;;;;;;;1.07;69.92;98058.44;105819;1258;108447;-74
2023/11/30 12:41:54;;;;;;;29.60;13.90;;;;;;;1.07;70.11;98053.55;108409;1253;96347;-74
2023/11/30 12:44:22;;;;;;;26.30;11.80;;;;;;;1.09;69.98;98048.06;106860;1256;107643;-76
2023/11/30 12:46:50;;;;;;;31.00;14.30;;;;;;;1.08;69.80;98042.48;108246;1253;95086;-74
2023/11/30 12:49:18;;;;;;;26.30;11.60;;;;;;;1.07;70.09;98037.98;108400;1254;94940;-74
2023/11/30 12:51:46;;;;;;;26.50;12.50;;;;;;;1.07;69.46;98035.23;106446;1253;108193;-73
2023/11/30 12:54:14;;;;;;;25.50;11.60;;;;;;;1.04;68.79;98032.91;105732;1254;96116;-70
2023/11/30 12:56:42;;;;;;;24.00;11.60;;;;;;;1.00;69.58;98027.73;106417;1256;107348;-75
2023/11/30 12:59:09;;;;;;;29.70;12.10;;;;;;;0.95;69.19;98023.25;105543;1259;95347;-74
2023/11/30 13:01:37;;;;;;;26.60;11.20;;;;;;;0.89;69.32;98015.85;107731;1254;95260;-72
2023/11/30 13:04:06;;;;;;;27.20;11.60;;;;;;;0.82;69.23;98021.27;105537;1258;108628;-73
2023/11/30 13:06:35;;;;;;;25.10;10.20;;;;;;;0.76;68.75;98022.80;106734;1254;96317;-74
2023/11/30 13:09:03;;;;;;;26.50;11.50;;;;;;;0.67;69.01;98023.23;105911;1254;107611;-73
2023/11/30 13:11:31;;;;;;;26.20;10.60;;;;;;;0.58;68.67;98020.35;106085;1257;96214;-74
2023/11/30 13:14:02;;;;;;;26.90;11.20;;;;;;;0.53;69.13;98010.98;105711;1257;95252;-74
2023/11/30 13:16:33;;;;;;;24.90;10.90;;;;;;;0.47;68.41;98004.11;105385;1257;108075;-79
2023/11/30 13:19:01;;;;;;;25.60;10.80;;;;;;;0.41;68.72;98002.16;106043;1260;95448;-80
2023/11/30 13:21:30;;;;;;;24.00;10.00;;;;;;;0.35;67.93;97996.66;108449;1254;107726;-77
2023/11/30 13:23:59;;;;;;;26.70;11.50;;;;;;;0.31;68.88;97994.09;105434;1254;95320;-78
2023/11/30 13:26:27;;;;;;;23.30;10.40;;;;;;;0.28;68.77;97989.84;105420;1254;95254;-77
2023/11/30 13:28:55;;;;;;;25.90;10.70;;;;;;;0.25;69.26;97984.73;105620;1261;108627;-75
2023/11/30 13:31:23;;;;;;;25.90;11.60;;;;;;;0.21;68.89;97986.17;106032;1253;95151;-77
2023/11/30 13:33:51;;;;;;;25.10;10.80;;;;;;;0.18;68.76;97984.60;105897;1257;107673;-76
2023/11/30 13:36:18;;;;;;;23.40;9.80;;;;;;;0.14;69.09;97983.52;105155;1261;95210;-74
2023/11/30 13:38:47;;;;;;;25.80;10.00;;;;;;;0.13;68.93;97979.23;105775;1256;96136;-78
2023/11/30 13:41:15;;;;;;;27.40;12.30;;;;;;;0.10;69.11;97974.48;105755;1257;108442;-75
2023/11/30 13:43:43;;;;;;;25.00;10.50;;;;;;;0.07;69.11;97970.08;106288;1253;96979;-75
2023/11/30 13:46:14;;;;;;;24.40;11.60;;;;;;;0.05;68.80;97964.27;105565;1258;107213;-73
2023/11/30 13:48:43;;;;;;;29.00;12.60;;;;;;;0.03;69.05;97966.51;105413;1257;95259;-74
2023/11/30 13:51:11;;;;;;;25.50;9.90;;;;;;;-0.00;68.71;97963.64;105180;1259;96297;-75
2023/11/30 13:53:38;;;;;;;24.10;9.90;;;;;;;-0.04;68.68;97963.28;106097;1254;108528;-74
2023/11/30 13:56:08;;;;;;;27.60;11.30;;;;;;;-0.08;68.78;97965.94;105710;1257;95507;-74
2023/11/30 13:58:36;;;;;;;27.60;10.90;;;;;;;-0.12;69.05;97964.55;105742;1257;107163;-75
2023/11/30 14:01:04;;;;;;;29.50;12.40;;;;;;;-0.14;68.89;97961.31;105138;1254;96192;-72
2023/11/30 14:03:32;;;;;;;28.70;11.80;;;;;;;-0.19;68.66;97961.71;106216;1254;95173;-75
2023/11/30 14:06:00;;;;;;;28.30;12.50;;;;;;;-0.24;68.68;97964.58;105452;1253;107126;-75
2023/11/30 14:08:28;;;;;;;33.70;13.00;;;;;;;-0.27;68.76;97973.27;105517;1256;95387;-73
2023/11/30 14:10:56;;;;;;;29.70;13.60;;;;;;;-0.31;68.83;97971.69;105844;1256;107405;-72
2023/11/30 14:13:24;;;;;;;27.70;11.50;;;;;;;-0.36;68.55;97978.55;105837;1258;96082;-74
2023/11/30 14:15:52;;;;;;;26.50;11.70;;;;;;;-0.41;68.96;97977.21;105812;1257;96193;-74
2023/11/30 14:18:20;;;;;;;28.10;11.60;;;;;;;-0.43;69.16;97972.93;106066;1254;108615;-73
2023/11/30 14:20:48;;;;;;;28.70;12.00;;;;;;;-0.45;69.30;97978.94;105907;1254;95372;-76
2023/11/30 14:23:16;;;;;;;36.80;15.50;;;;;;;-0.44;69.45;97979.27;105523;1253;107242;-77
2023/11/30 14:25:44;;;;;;;29.60;11.90;;;;;;;-0.44;69.36;97976.11;106426;1257;95243;-78
2023/11/30 14:28:12;;;;;;;26.70;11.30;;;;;;;-0.45;69.35;97976.52;105594;1257;95173;-76
2023/11/30 14:30:42;;;;;;;25.20;10.30;;;;;;;-0.45;69.27;97973.56;105846;1254;108156;-77
2023/11/30 14:33:11;;;;;;;26.90;11.50;;;;;;;-0.47;69.37;97971.00;105297;1254;95257;-81
2023/11/30 14:35:41;;;;;;;24.50;9.80;;;;;;;-0.49;69.22;97973.20;105633;1258;108045;-80
2023/11/30 14:38:09;;;;;;;25.00;9.90;;;;;;;-0.51;69.33;97969.97;105553;1267;95216;-76
2023/11/30 14:40:37;;;;;;;24.00;11.20;;;;;;;-0.53;69.19;97962.06;105603;1254;95228;-75
2023/11/30 14:43:06;;;;;;;23.20;9.80;;;;;;;-0.56;68.86;97967.09;105508;1257;109671;-73
2023/11/30 14:45:34;;;;;;;24.20;10.20;;;;;;;-0.60;69.18;97965.50;105752;1259;95308;-81
2023/11/30 14:48:05;;;;;;;23.20;9.60;;;;;;;-0.61;69.15;97967.63;105256;1266;107386;-79
2023/11/30 14:50:35;;;;;;;19.60;7.70;;;;;;;-0.63;69.01;97962.83;105428;1260;95340;-73
2023/11/30 14:53:04;;;;;;;27.00;10.50;;;;;;;-0.63;69.24;97968.77;105549;1254;95190;-71
2023/11/30 14:55:32;;;;;;;24.60;10.30;;;;;;;-0.64;69.29;97966.58;106678;1256;108902;-69
2023/11/30 14:58:00;;;;;;;29.00;13.40;;;;;;;-0.67;69.55;97964.05;105473;1260;95449;-72
2023/11/30 15:00:28;;;;;;;30.70;12.60;;;;;;;-0.68;69.05;97970.23;105652;1254;107261;-71
2023/11/30 15:02:56;;;;;;;30.70;12.60;;;;;;;-0.71;69.25;97963.58;105831;1257;95269;-71
2023/11/30 15:05:24;;;;;;;27.30;11.60;;;;;;;-0.72;69.36;97962.05;105607;1257;95250;-71
2023/11/30 15:07:52;;;;;;;27.80;12.20;;;;;;;-0.74;69.09;97956.73;105572;1256;108278;-71
2023/11/30 15:10:22;;;;;;;32.30;13.40;;;;;;;-0.76;69.37;97955.23;106346;1260;95304;-70
2023/11/30 15:12:50;;;;;;;26.10;11.20;;;;;;;-0.77;69.36;97956.64;105947;1257;107607;-72
2023/11/30 15:15:18;;;;;;;29.20;11.30;;;;;;;-0.79;69.25;97956.05;105358;1257;97475;-69
2023/11/30 15:17:49;;;;;;;23.60;9.80;;;;;;;-0.79;69.42;97953.80;105828;1256;96588;-71
2023/11/30 15:20:17;;;;;;;24.60;10.10;;;;;;;-0.79;69.41;97952.94;105730;1254;109905;-71
2023/11/30 15:22:47;;;;;;;25.00;11.00;;;;;;;-0.80;69.37;97946.20;106546;1256;96663;-71
2023/11/30 15:25:18;;;;;;;25.90;10.40;;;;;;;-0.81;69.44;97943.60;105476;1257;107652;-70
2023/11/30 15:27:48;;;;;;;27.10;10.50;;;;;;;-0.82;69.57;97940.17;107348;1252;96609;-73
2023/11/30 15:30:16;;;;;;;24.50;10.60;;;;;;;-0.80;69.59;97942.33;108451;1253;94499;-72
2023/11/30 15:32:45;;;;;;;26.70;10.70;;;;;;;-0.79;69.63;97946.64;108441;1254;109921;-74
2023/11/30 15:35:13;;;;;;;24.40;10.70;;;;;;;-0.78;69.59;97947.30;107344;1254;96635;-70
2023/11/30 15:37:46;;;;;;;25.20;10.30;;;;;;;-0.76;69.63;97946.19;107360;1254;105554;-70
2023/11/30 15:40:16;;;;;;;26.80;10.90;;;;;;;-0.74;69.55;97943.34;105996;1257;97910;-69
2023/11/30 15:42:45;;;;;;;28.10;11.70;;;;;;;-0.73;69.61;97937.20;106535;1254;96601;-71
2023/11/30 15:45:16;;;;;;;33.20;15.10;;;;;;;-0.73;69.65;97937.34;106480;1254;108981;-75
2023/11/30 15:47:45;;;;;;;34.60;16.70;;;;;;;-0.70;69.68;97939.14;108254;1253;95332;-69
2023/11/30 15:50:14;;;;;;;28.80;13.10;;;;;;;-0.70;69.73;97938.60;106505;1254;107697;-71
2023/11/30 15:52:42;;;;;;;32.70;14.30;;;;;;;-0.68;69.72;97936.95;106564;1253;96701;-72
2023/11/30 15:55:13;;;;;;;40.30;16.50;;;;;;;-0.66;69.63;97933.91;105785;1257;96622;-70
2023/11/30 15:57:41;;;;;;;44.60;18.90;;;;;;;-0.66;69.65;97928.34;106300;1256;109597;-69
2023/11/30 16:00:10;;;;;;;34.40;14.20;;;;;;;-0.67;69.79;97921.94;105651;1256;97811;-69
2023/11/30 16:02:38;;;;;;;28.80;12.50;;;;;;;-0.67;69.75;97920.36;106964;1254;105762;-72
2023/11/30 16:05:06;;;;;;;30.60;13.80;;;;;;;-0.66;69.78;97917.73;105956;1257;97581;-71
2023/11/30 16:07:34;;;;;;;29.50;13.90;;;;;;;-0.65;69.73;97916.81;105387;1258;97557;-70
2023/11/30 16:10:04;;;;;;;28.60;13.40;;;;;;;-0.66;69.68;97910.73;106004;1257;109909;-69
2023/11/30 16:12:32;;;;;;;29.90;13.20;;;;;;;-0.65;69.61;97909.15;105692;1253;96689;-70
2023/11/30 16:15:00;;;;;;;31.10;13.50;;;;;;;-0.65;69.70;97908.61;107107;1254;108604;-69
2023/11/30 16:17:28;;;;;;;30.10;12.70;;;;;;;-0.63;69.78;97915.16;105785;1256;96681;-70
2023/11/30 16:19:55;;;;;;;30.90;14.00;;;;;;;-0.65;69.66;97911.73;105688;1254;96595;-69
2023/11/30 16:22:23;;;;;;;25.10;11.20;;;;;;;-0.64;69.85;97916.92;108559;1253;109933;-69
2023/11/30 16:24:51;;;;;;;26.60;10.70;;;;;;;-0.62;69.85;97918.58;108676;1253;95470;-69
2023/11/30 16:27:20;;;;;;;24.40;11.00;;;;;;;-0.60;69.87;97918.67;108694;1253;107132;-70
2023/11/30 16:29:48;;;;;;;22.70;8.80;;;;;;;-0.59;69.82;97922.45;108620;1252;94235;-70
2023/11/30 16:32:16;;;;;;;24.00;10.40;;;;;;;-0.55;69.90;97916.55;108690;1253;94543;-71
2023/11/30 16:34:43;;;;;;;26.10;10.90;;;;;;;-0.54;69.98;97908.48;108681;1254;110868;-71
2023/11/30 16:37:11;;;;;;;26.00;10.90;;;;;;;-0.55;69.82;97904.66;105644;1253;96616;-70
2023/11/30 16:39:39;;;;;;;30.90;13.00;;;;;;;-0.53;69.94;97899.88;105496;1257;107588;-70
2023/11/30 16:42:07;;;;;;;24.20;11.10;;;;;;;-0.50;69.90;97900.94;105953;1253;96629;-71
2023/11/30 16:44:35;;;;;;;26.80;12.70;;;;;;;-0.48;69.92;97899.81;106002;1253;97528;-70
2023/11/30 16:47:07;;;;;;;29.20;13.80;;;;;;;-0.45;69.97;97894.14;105977;1253;110067;-70
2023/11/30 16:49:35;;;;;;;27.00;11.80;;;;;;;-0.46;70.02;97891.54;107051;1253;96525;-69
2023/11/30 16:52:03;;;;;;;27.10;11.60;;;;;;;-0.45;70.08;97884.00;105866;1254;109105;-71
2023/11/30 16:54:31;;;;;;;25.80;11.40;;;;;;;-0.43;70.06;97880.09;106525;1253;96663;-70
2023/11/30 16:56:59;;;;;;;27.00;11.70;;;;;;;-0.41;70.14;97874.25;105848;1253;97040;-70
2023/11/30 16:59:27;;;;;;;27.80;12.20;;;;;;;-0.40;70.07;97879.79;105679;1254;108996;-69
2023/11/30 17:01:55;;;;;;;27.90;11.80;;;;;;;-0.39;70.10;97886.50;105207;1257;97542;-73
2023/11/30 17:04:23;;;;;;;25.20;9.70;;;;;;;-0.37;70.12;97894.44;105746;1253;108167;-70
2023/11/30 17:06:51;;;;;;;23.30;9.60;;;;;;;-0.38;70.23;97893.43;105712;1253;96608;-70
2023/11/30 17:09:19;;;;;;;27.30;10.40;;;;;;;-0.37;70.28;97889.92;108408;1252;94580;-69
2023/11/30 17:11:47;;;;;;;25.50;10.10;;;;;;;-0.36;70.17;97885.67;105584;1255;109947;-71
2023/11/30 17:14:14;;;;;;;32.00;12.90;;;;;;;-0.35;70.20;97884.23;105356;1257;97426;-69
2023/11/30 17:16:42;;;;;;;35.50;12.80;;;;;;;-0.34;70.24;97877.74;105680;1256;106131;-70
2023/11/30 17:19:10;;;;;;;30.40;12.30;;;;;;;-0.33;70.37;97871.44;106875;1252;96599;-69
2023/11/30 17:21:38;;;;;;;30.80;13.30;;;;;;;-0.33;70.34;97869.52;105758;1254;96593;-70
2023/11/30 17:24:08;;;;;;;26.90;11.10;;;;;;;-0.32;70.31;97860.39;105258;1257;109984;-70
2023/11/30 17:26:36;;;;;;;29.10;12.70;;;;;;;-0.29;70.35;97865.52;105376;1254;97144;-69
2023/11/30 17:29:04;;;;;;;27.80;10.50;;;;;;;-0.26;70.36;97859.11;105409;1253;107419;-69
2023/11/30 17:31:32;;;;;;;32.00;14.30;;;;;;;-0.25;70.43;97856.96;105358;1257;96712;-70
2023/11/30 17:34:00;;;;;;;29.50;13.30;;;;;;;-0.25;70.38;97850.02;105185;1253;96618;-71
2023/11/30 17:36:28;;;;;;;29.20;12.70;;;;;;;-0.25;70.30;97851.37;105379;1253;110028;-69
2023/11/30 17:38:58;;;;;;;33.00;14.70;;;;;;;-0.23;70.27;97844.84;106199;1253;96698;-69
2023/11/30 17:41:26;;;;;;;26.00;10.90;;;;;;;-0.21;70.54;97841.44;105431;1259;107623;-69
2023/11/30 17:43:55;;;;;;;29.00;12.00;;;;;;;-0.20;70.29;97842.77;106730;1252;96584;-68
2023/11/30 17:46:23;;;;;;;27.30;11.30;;;;;;;-0.19;70.41;97834.86;105537;1257;96598;-69
2023/11/30 17:48:50;;;;;;;24.70;11.20;;;;;;;-0.18;70.46;97809.92;107417;1256;109587;-70
2023/11/30 17:51:19;;;;;;;26.50;11.20;;;;;;;-0.18;70.25;97797.88;106024;1253;96540;-72
2023/11/30 17:53:48;;;;;;;24.10;9.50;;;;;;;-0.17;70.43;97812.63;105258;1254;108685;-71
2023/11/30 17:56:16;;;;;;;29.00;12.60;;;;;;;-0.14;70.51;97830.11;105498;1257;96597;-70
2023/11/30 17:58:44;;;;;;;25.20;11.50;;;;;;;-0.13;70.50;97831.30;105499;1257;97827;-70
2023/11/30 18:01:11;;;;;;;25.90;11.40;;;;;;;-0.12;70.51;97835.25;107245;1252;110376;-70
2023/11/30 18:03:39;;;;;;;28.00;12.90;;;;;;;-0.10;70.52;97833.40;105363;1257;97099;-70
2023/11/30 18:06:10;;;;;;;24.00;10.00;;;;;;;-0.06;70.50;97822.95;105562;1257;107633;-70
2023/11/30 18:08:38;;;;;;;24.10;9.20;;;;;;;-0.05;70.42;97826.02;105912;1252;97506;-68
2023/11/30 18:11:07;;;;;;;21.60;8.40;;;;;;;-0.05;70.47;97817.46;108396;1252;96579;-68
2023/11/30 18:13:35;;;;;;;24.50;9.30;;;;;;;-0.04;70.43;97814.11;105953;1253;110930;-68
2023/11/30 18:16:03;;;;;;;22.20;8.30;;;;;;;-0.04;70.58;97812.88;105148;1252;96598;-69
2023/11/30 18:18:31;;;;;;;21.00;8.30;;;;;;;-0.01;70.54;97810.14;106148;1256;107654;-68
2023/11/30 18:20:59;;;;;;;22.50;9.10;;;;;;;0.01;70.61;97817.36;105382;1254;96615;-69
2023/11/30 18:23:27;;;;;;;20.80;8.30;;;;;;;0.02;70.62;97826.17;105561;1257;96620;-69
2023/11/30 18:25:54;;;;;;;21.30;9.70;;;;;;;0.03;70.58;97842.16;105954;1252;109941;-69
2023/11/30 18:28:22;;;;;;;21.30;8.40;;;;;;;0.05;70.66;97854.29;105644;1257;97792;-70
2023/11/30 18:30:50;;;;;;;22.90;9.60;;;;;;;0.06;70.60;97832.99;106052;1258;108489;-69
2023/11/30 18:33:20;;;;;;;25.40;10.00;;;;;;;0.05;70.56;97838.92;105463;1257;96601;-70
2023/11/30 18:35:49;;;;;;;23.50;9.00;;;;;;;0.06;70.71;97842.89;105591;1256;96719;-69
2023/11/30 18:38:17;;;;;;;26.70;10.90;;;;;;;0.08;70.54;97838.30;105649;1253;110308;-69
2023/11/30 18:40:45;;;;;;;26.20;11.00;;;;;;;0.09;70.72;97833.35;105645;1257;97433;-71
2023/11/30 18:43:15;;;;;;;26.50;11.50;;;;;;;0.06;70.75;97834.00;105175;1258;107322;-74
2023/11/30 18:45:44;;;;;;;25.20;9.80;;;;;;;0.05;70.76;97832.13;105306;1257;96677;-73
2023/11/30 18:48:12;;;;;;;28.60;11.60;;;;;;;0.05;70.78;97833.02;105748;1256;96514;-73
2023/11/30 18:50:40;;;;;;;24.80;9.80;;;;;;;0.06;70.91;97824.27;106429;1252;111399;-71
2023/11/30 18:53:08;;;;;;;24.60;9.90;;;;;;;0.04;70.87;97813.17;106548;1252;96626;-71
2023/11/30 18:55:35;;;;;;;24.30;10.20;;;;;;;0.05;70.75;97811.58;108115;1252;107561;-68
2023/11/30 18:58:03;;;;;;;23.70;9.80;;;;;;;0.06;70.70;97813.09;105585;1254;96652;-68
2023/11/30 19:00:31;;;;;;;21.80;9.40;;;;;;;0.07;70.69;97816.17;105847;1255;96524;-69
2023/11/30 19:02:59;;;;;;;24.20;10.30;;;;;;;0.09;70.82;97813.48;106578;1252;109935;-69
2023/11/30 19:05:27;;;;;;;23.40;9.10;;;;;;;0.10;70.63;97819.54;105641;1253;96626;-70
2023/11/30 19:07:55;;;;;;;26.90;11.50;;;;;;;0.11;70.73;97821.02;105827;1257;107696;-69
2023/11/30 19:10:23;;;;;;;24.80;10.30;;;;;;;0.11;70.74;97820.33;105030;1258;97475;-70
2023/11/30 19:12:51;;;;;;;24.90;9.80;;;;;;;0.12;70.82;97819.95;106340;1254;96600;-71
2023/11/30 19:15:19;;;;;;;25.50;10.30;;;;;;;0.13;70.80;97826.54;108456;1252;109335;-69
2023/11/30 19:17:48;;;;;;;23.10;9.20;;;;;;;0.14;70.79;97825.41;106373;1256;97950;-69
2023/11/30 19:20:16;;;;;;;23.10;9.00;;;;;;;0.17;70.78;97821.30;105461;1257;107116;-69
2023/11/30 19:22:44;;;;;;;22.60;10.00;;;;;;;0.17;70.84;97823.02;105859;1253;96606;-69
2023/11/30 19:25:12;;;;;;;24.50;10.40;;;;;;;0.19;70.92;97816.12;105970;1252;96607;-70
2023/11/30 19:27:39;;;;;;;22.90;9.60;;;;;;;0.19;70.90;97808.64;108297;1253;109811;-68